Time;durP1;ratioP1;P1;durP2;ratioP2;P2;SDS_P1;SDS_P2;PMS_P1;PMS_P2;Temp;Humidity;BMP_temperature;BMP_pressure;BME280_temperature;BME280_humidity;BME280_pressure;Samples;Min_cycle;Max_cycle;Signal;HPM_P1;HPM_P2
2023/12/08 00:02:16;;;;;;;4.40;2.73;;;5.80;44.80;;;;;;5053836;28;20640;-46
2023/12/08 00:04:42;;;;;;;3.83;2.43;;;5.80;44.90;;;;;;5053804;28;20634;-49
2023/12/08 00:07:07;;;;;;;2.13;1.93;;;5.70;44.80;;;;;;5053692;28;20181;-44
2023/12/08 00:09:33;;;;;;;4.17;3.30;;;5.70;44.90;;;;;;5053774;28;20169;-48
2023/12/08 00:11:59;;;;;;;1.90;1.80;;;5.70;44.80;;;;;;5053956;28;20201;-50
2023/12/08 00:14:25;;;;;;;4.90;2.30;;;5.70;44.70;;;;;;5053937;28;20222;-47
2023/12/08 00:16:50;;;;;;;1.83;1.37;;;5.70;44.70;;;;;;5053634;28;20443;-47
2023/12/08 00:19:16;;;;;;;3.00;2.30;;;5.70;44.60;;;;;;5053582;28;20268;-45
2023/12/08 00:21:42;;;;;;;1.93;1.47;;;5.60;44.60;;;;;;5053363;28;20266;-49
2023/12/08 00:24:08;;;;;;;2.10;0.80;;;5.60;44.40;;;;;;5053692;28;20170;-48
2023/12/08 00:26:33;;;;;;;1.20;0.70;;;5.60;44.40;;;;;;5053338;28;20170;-49
2023/12/08 00:28:59;;;;;;;5.83;2.80;;;5.50;44.60;;;;;;5053545;28;20796;-43
2023/12/08 00:31:25;;;;;;;2.93;1.90;;;5.50;44.60;;;;;;5053291;28;20198;-47
2023/12/08 00:33:51;;;;;;;1.20;1.07;;;5.50;44.70;;;;;;5053116;28;20179;-48
2023/12/08 00:36:17;;;;;;;1.10;0.85;;;5.50;44.70;;;;;;5053347;28;20189;-44
2023/12/08 00:38:44;;;;;;;27.03;2.23;;;5.50;44.80;;;;;;5053197;28;20177;-48
2023/12/08 00:41:10;;;;;;;1.77;1.52;;;5.40;44.90;;;;;;5053134;28;20296;-49
2023/12/08 00:43:36;;;;;;;1.55;1.10;;;5.40;44.80;;;;;;5053177;28;20249;-46
2023/12/08 00:46:03;;;;;;;1.65;1.05;;;5.40;44.90;;;;;;5052810;28;20651;-50
2023/12/08 00:48:29;;;;;;;8.05;2.45;;;5.40;44.90;;;;;;5052971;28;20180;-51
2023/12/08 00:50:55;;;;;;;3.00;2.73;;;5.40;45.20;;;;;;5053086;28;20201;-44
2023/12/08 00:53:21;;;;;;;1.30;0.63;;;5.40;45.20;;;;;;5054432;28;20408;-44
2023/12/08 00:55:46;;;;;;;2.47;2.00;;;5.50;45.20;;;;;;5054145;28;20527;-47
2023/12/08 00:58:15;;;;;;;2.37;1.90;;;5.50;45.20;;;;;;5054058;28;20751;-45
2023/12/08 01:00:41;;;;;;;1.52;1.40;;;5.50;45.20;;;;;;5054077;28;20290;-44
2023/12/08 01:03:06;;;;;;;2.03;1.90;;;5.50;45.00;;;;;;5052743;28;20205;-51
2023/12/08 01:05:32;;;;;;;1.10;0.77;;;5.50;45.00;;;;;;5052513;28;20185;-46
2023/12/08 01:07:58;;;;;;;1.97;1.77;;;5.50;45.00;;;;;;5052533;28;20177;-47
2023/12/08 01:10:23;;;;;;;4.20;2.87;;;5.50;45.10;;;;;;5052715;28;20635;-44
2023/12/08 01:12:49;;;;;;;5.17;3.30;;;5.50;45.40;;;;;;5052654;28;20188;-44
2023/12/08 01:15:15;;;;;;;2.23;0.93;;;5.50;45.40;;;;;;5051165;28;20178;-47
2023/12/08 01:17:41;;;;;;;3.60;2.43;;;5.50;45.20;;;;;;5052274;28;20524;-47
2023/12/08 01:20:07;;;;;;;4.40;3.00;;;5.50;45.40;;;;;;5052339;28;20238;-44
2023/12/08 01:22:33;;;;;;;3.10;2.25;;;5.50;45.30;;;;;;5052618;28;20188;-48
2023/12/08 01:24:59;;;;;;;6.53;4.10;;;5.50;45.50;;;;;;5052465;28;20532;-48
2023/12/08 01:27:25;;;;;;;1.75;1.65;;;4.10;44.70;;;;;;5052089;28;20215;-44
2023/12/08 01:29:52;;;;;;;2.10;1.90;;;5.50;45.60;;;;;;5052311;28;20181;-46
2023/12/08 01:32:17;;;;;;;4.00;2.47;;;5.60;45.30;;;;;;5052128;28;20407;-49
2023/12/08 01:34:43;;;;;;;7.77;2.93;;;5.50;45.60;;;;;;5052122;28;20177;-46
2023/12/08 01:37:09;;;;;;;2.40;1.60;;;5.50;45.60;;;;;;5052153;28;20204;-47
2023/12/08 01:39:35;;;;;;;2.50;1.80;;;5.40;45.80;;;;;;5052160;28;20597;-49
2023/12/08 01:42:00;;;;;;;3.37;2.80;;;5.50;46.60;;;;;;5052121;28;20169;-47
2023/12/08 01:44:26;;;;;;;2.40;1.63;;;5.50;45.80;;;;;;5052092;28;20408;-45
2023/12/08 01:46:52;;;;;;;7.50;1.63;;;5.50;45.60;;;;;;5050609;28;20539;-46
2023/12/08 01:49:18;;;;;;;1.33;1.23;;;5.50;45.60;;;;;;5051958;28;20252;-43
2023/12/08 01:51:46;;;;;;;1.80;1.70;;;5.60;45.50;;;;;;5052123;28;20197;-47
2023/12/08 01:54:14;;;;;;;1.98;1.85;;;5.60;45.50;;;;;;5052092;28;20311;-50
2023/12/08 01:56:40;;;;;;;0.95;0.80;;;5.60;45.30;;;;;;5051775;28;20677;-44
2023/12/08 01:59:08;;;;;;;3.40;3.15;;;5.60;45.20;;;;;;5051942;28;20165;-44
2023/12/08 02:01:34;;;;;;;2.10;1.38;;;5.60;45.20;;;;;;5051691;28;20213;-47
2023/12/08 02:04:01;;;;;;;1.30;1.20;;;5.60;45.40;;;;;;5051905;28;20661;-48
2023/12/08 02:06:27;;;;;;;5.35;2.33;;;5.60;45.20;;;;;;5051868;28;20186;-47
2023/12/08 02:08:53;;;;;;;1.60;1.50;;;5.50;45.30;;;;;;5050778;28;20739;-44
2023/12/08 02:11:19;;;;;;;10.80;3.42;;;5.60;45.30;;;;;;5052009;28;20208;-52
2023/12/08 02:13:45;;;;;;;3.40;2.28;;;5.60;45.20;;;;;;5051936;28;20184;-46
2023/12/08 02:16:18;;;;;;;4.03;2.65;;;5.60;45.20;;;;;;5053020;28;20647;-45
2023/12/08 02:18:44;;;;;;;5.82;5.28;;;5.60;45.20;;;;;;5056130;28;20185;-46
2023/12/08 02:21:13;;;;;;;9.23;4.00;;;5.60;45.20;;;;;;5055621;28;20295;-45
2023/12/08 02:23:43;;;;;;;1.48;1.30;;;5.60;45.20;;;;;;5056024;28;20231;-45
2023/12/08 02:26:10;;;;;;;2.65;2.22;;;5.60;45.10;;;;;;5055713;28;20548;-50
2023/12/08 02:28:36;;;;;;;4.38;3.92;;;5.60;45.00;;;;;;5055586;28;20340;-50
2023/12/08 02:31:05;;;;;;;2.87;1.73;;;5.60;44.90;;;;;;5055506;28;20704;-47
2023/12/08 02:33:32;;;;;;;1.52;1.38;;;5.60;44.90;;;;;;5055520;28;20939;-46
2023/12/08 02:36:04;;;;;;;4.75;1.95;;;5.70;44.90;;;;;;5055396;28;20197;-48
2023/12/08 02:38:31;;;;;;;9.23;4.50;;;5.60;44.80;;;;;;5055526;28;20185;-52
2023/12/08 02:40:57;;;;;;;2.42;1.92;;;5.60;44.70;;;;;;5055102;28;20296;-48
2023/12/08 02:43:23;;;;;;;9.60;4.87;;;5.60;44.70;;;;;;5055651;28;20248;-45
2023/12/08 02:45:49;;;;;;;5.90;4.40;;;5.60;44.40;;;;;;5055159;28;20412;-45
2023/12/08 02:48:14;;;;;;;1.73;1.63;;;5.50;44.50;;;;;;5055546;28;20178;-50
2023/12/08 02:50:42;;;;;;;9.20;5.10;;;5.50;44.60;;;;;;5055322;28;20200;-46
2023/12/08 02:53:07;;;;;;;1.65;1.17;;;5.50;44.70;;;;;;5055154;28;20407;-49
2023/12/08 02:55:34;;;;;;;8.47;4.00;;;5.50;44.80;;;;;;5055122;28;20718;-52
2023/12/08 02:57:59;;;;;;;3.70;3.08;;;5.50;44.60;;;;;;5055069;28;20516;-46
2023/12/08 03:00:26;;;;;;;5.57;2.40;;;5.50;44.70;;;;;;5055025;28;20212;-49
2023/12/08 03:02:51;;;;;;;4.40;3.10;;;5.50;44.60;;;;;;5054915;28;20719;-52
2023/12/08 03:05:17;;;;;;;4.23;2.97;;;5.50;44.30;;;;;;5055076;28;20177;-46
2023/12/08 03:07:43;;;;;;;1.27;1.17;;;5.50;44.30;;;;;;5054818;28;20173;-46
2023/12/08 03:10:09;;;;;;;9.15;3.65;;;5.50;44.60;;;;;;5054665;28;20224;-51
2023/12/08 03:12:35;;;;;;;3.30;3.00;;;5.50;44.60;;;;;;5055039;28;20256;-47
2023/12/08 03:15:01;;;;;;;2.17;1.97;;;5.50;44.70;;;;;;5054878;28;20574;-50
2023/12/08 03:17:27;;;;;;;2.50;2.30;;;5.50;44.60;;;;;;5054747;28;20408;-47
2023/12/08 03:19:52;;;;;;;2.63;1.57;;;5.60;44.40;;;;;;5054384;28;20197;-48
2023/12/08 03:22:18;;;;;;;8.70;5.83;;;5.60;44.30;;;;;;5054635;28;20200;-52
2023/12/08 03:24:44;;;;;;;5.13;2.10;;;5.60;44.20;;;;;;5054515;28;20230;-52
2023/12/08 03:27:09;;;;;;;1.37;1.13;;;5.60;44.30;;;;;;5054563;28;20232;-46
2023/12/08 03:29:40;;;;;;;2.00;1.73;;;5.50;44.20;;;;;;5054761;28;20173;-47
2023/12/08 03:32:06;;;;;;;9.68;3.05;;;5.50;44.70;;;;;;5054404;28;20260;-50
2023/12/08 03:34:32;;;;;;;8.10;2.25;;;5.40;44.10;;;;;;5054484;28;20291;-45
2023/12/08 03:36:58;;;;;;;2.93;2.73;;;5.40;44.10;;;;;;5054226;28;20286;-52
2023/12/08 03:39:23;;;;;;;4.90;2.57;;;5.50;44.80;;;;;;5054191;28;20400;-47
2023/12/08 03:41:49;;;;;;;3.30;3.00;;;5.50;43.90;;;;;;5054350;28;20193;-45
2023/12/08 03:44:15;;;;;;;2.80;2.60;;;5.60;43.90;;;;;;5054167;28;20577;-51
2023/12/08 03:46:44;;;;;;;2.20;2.00;;;5.60;43.70;;;;;;5054130;28;20176;-47
2023/12/08 03:49:10;;;;;;;2.58;2.38;;;5.70;43.60;;;;;;5054231;28;20247;-51
2023/12/08 03:51:35;;;;;;;2.95;2.30;;;5.60;43.30;;;;;;5054088;28;20666;-47
2023/12/08 03:54:01;;;;;;;2.50;2.10;;;5.60;43.40;;;;;;5053977;28;20184;-42
2023/12/08 03:56:27;;;;;;;2.07;1.83;;;5.50;43.40;;;;;;5053810;28;20404;-48
2023/12/08 03:58:53;;;;;;;1.80;1.70;;;5.50;43.30;;;;;;5054110;28;20465;-50
2023/12/08 04:01:19;;;;;;;2.00;1.80;;;5.50;43.50;;;;;;5053936;28;20212;-46
2023/12/08 04:03:45;;;;;;;0.80;0.43;;;5.50;43.40;;;;;;5053903;28;20412;-45
2023/12/08 04:06:11;;;;;;;2.08;1.67;;;5.50;43.00;;;;;;5053709;28;20543;-50
2023/12/08 04:08:37;;;;;;;7.30;1.77;;;5.40;43.30;;;;;;5053715;28;20166;-47
2023/12/08 04:11:03;;;;;;;5.53;4.53;;;5.30;43.50;;;;;;5053797;28;20189;-48
2023/12/08 04:13:29;;;;;;;3.50;2.80;;;5.40;43.40;;;;;;5053861;28;20181;-49
2023/12/08 04:15:55;;;;;;;2.33;2.13;;;5.40;43.30;;;;;;5053689;28;20184;-50
2023/12/08 04:18:20;;;;;;;3.13;2.53;;;5.30;43.30;;;;;;5053811;28;20173;-45
2023/12/08 04:20:46;;;;;;;5.00;2.63;;;5.30;43.00;;;;;;5053395;28;20296;-47
2023/12/08 04:23:12;;;;;;;3.47;2.83;;;5.40;43.10;;;;;;5053409;28;20170;-46
2023/12/08 04:25:37;;;;;;;2.03;1.50;;;5.40;43.00;;;;;;5053674;28;20169;-46
2023/12/08 04:28:04;;;;;;;8.00;3.47;;;5.50;42.90;;;;;;5053279;28;20157;-50
2023/12/08 04:30:30;;;;;;;1.23;0.95;;;5.50;42.80;;;;;;5053497;28;20271;-50
2023/12/08 04:32:56;;;;;;;7.07;5.65;;;5.50;42.70;;;;;;5053352;28;20170;-45
2023/12/08 04:35:24;;;;;;;1.90;1.58;;;5.50;42.60;;;;;;5053291;28;20181;-47
2023/12/08 04:37:53;;;;;;;6.07;2.25;;;5.50;42.60;;;;;;5053011;28;20185;-46
2023/12/08 04:40:19;;;;;;;3.30;3.10;;;5.50;42.40;;;;;;5052641;28;20211;-45
2023/12/08 04:42:45;;;;;;;1.90;0.90;;;5.50;42.60;;;;;;5053230;28;20605;-50
2023/12/08 04:45:13;;;;;;;4.82;4.20;;;5.40;42.60;;;;;;5053089;28;20407;-52
2023/12/08 04:47:39;;;;;;;7.90;1.88;;;5.40;42.70;;;;;;5052820;28;20210;-47
2023/12/08 04:50:05;;;;;;;2.80;1.65;;;5.40;42.50;;;;;;5053019;28;20193;-45
2023/12/08 04:52:32;;;;;;;0.80;0.47;;;5.50;42.70;;;;;;5052895;28;20181;-50
2023/12/08 04:54:58;;;;;;;1.02;0.63;;;5.40;42.20;;;;;;5053139;28;20250;-44
2023/12/08 04:57:24;;;;;;;6.05;2.95;;;5.40;42.30;;;;;;5052711;28;20177;-53
2023/12/08 04:59:50;;;;;;;5.20;3.40;;;5.50;42.10;;;;;;5052689;28;20201;-49
2023/12/08 05:02:16;;;;;;;2.20;0.93;;;5.40;42.90;;;;;;5052897;28;20408;-45
2023/12/08 05:04:42;;;;;;;5.80;3.47;;;5.50;42.20;;;;;;5052687;28;20654;-50
2023/12/08 05:07:08;;;;;;;1.53;1.27;;;5.40;42.20;;;;;;5052764;28;20617;-48
2023/12/08 05:09:33;;;;;;;3.63;1.27;;;5.40;42.10;;;;;;5052526;28;20411;-50
2023/12/08 05:11:59;;;;;;;4.90;1.90;;;5.40;41.70;;;;;;5052659;28;20559;-45
2023/12/08 05:14:25;;;;;;;5.07;1.50;;;5.40;41.90;;;;;;5052592;28;20169;-48
2023/12/08 05:16:50;;;;;;;5.43;3.13;;;5.40;41.80;;;;;;5052415;28;20231;-50
2023/12/08 05:19:16;;;;;;;2.00;1.53;;;5.40;41.70;;;;;;5052407;28;20189;-46
2023/12/08 05:21:42;;;;;;;3.17;1.55;;;5.40;41.70;;;;;;5052129;28;20223;-48
2023/12/08 05:24:08;;;;;;;7.23;2.10;;;5.50;41.60;;;;;;5052353;28;20263;-50
2023/12/08 05:26:34;;;;;;;2.90;2.70;;;5.40;41.50;;;;;;5052185;28;20244;-46
2023/12/08 05:29:00;;;;;;;0.90;0.33;;;5.50;41.60;;;;;;5052262;28;20407;-53
2023/12/08 05:31:25;;;;;;;3.33;0.50;;;5.50;41.50;;;;;;5052302;28;20196;-47
2023/12/08 05:33:51;;;;;;;4.03;2.10;;;5.50;41.30;;;;;;5052910;28;21060;-46
2023/12/08 05:36:17;;;;;;;4.47;2.10;;;5.50;41.10;;;;;;5052883;28;20416;-44
2023/12/08 05:38:43;;;;;;;2.07;1.73;;;5.50;41.10;;;;;;5053125;28;20180;-53
2023/12/08 05:41:09;;;;;;;1.00;0.77;;;5.50;40.70;;;;;;5052414;28;21049;-52
2023/12/08 05:43:34;;;;;;;1.53;1.23;;;5.50;40.80;;;;;;5052395;28;20798;-49
2023/12/08 05:46:00;;;;;;;2.63;0.97;;;5.50;40.40;;;;;;5051917;28;20197;-53
2023/12/08 05:48:26;;;;;;;5.63;1.83;;;5.40;40.50;;;;;;5051945;28;20169;-46
2023/12/08 05:50:52;;;;;;;0.80;0.40;;;5.40;40.60;;;;;;5051092;28;20200;-48
2023/12/08 05:53:17;;;;;;;1.53;1.40;;;5.40;40.40;;;;;;5052140;28;20177;-52
2023/12/08 05:55:43;;;;;;;3.63;3.07;;;5.30;40.40;;;;;;5051749;28;20165;-46
2023/12/08 05:58:09;;;;;;;5.37;2.90;;;5.20;40.30;;;;;;5051910;28;20180;-46
2023/12/08 06:00:34;;;;;;;3.83;1.40;;;5.20;40.60;;;;;;5051753;28;20201;-52
2023/12/08 06:03:00;;;;;;;2.60;2.27;;;5.30;40.70;;;;;;5051845;28;20435;-47
2023/12/08 06:05:26;;;;;;;0.93;0.80;;;5.20;40.40;;;;;;5051788;28;20639;-46
2023/12/08 06:07:52;;;;;;;2.17;1.58;;;5.20;40.50;;;;;;5051792;28;20231;-51
2023/12/08 06:10:18;;;;;;;9.30;1.60;;;5.20;40.20;;;;;;5051775;28;20188;-47
2023/12/08 06:12:44;;;;;;;1.20;0.80;;;5.30;40.40;;;;;;5051869;28;20177;-46
2023/12/08 06:15:10;;;;;;;1.47;1.10;;;5.20;40.10;;;;;;5051807;28;20177;-50
2023/12/08 06:17:37;;;;;;;1.55;0.98;;;5.30;40.20;;;;;;5051545;28;20223;-51
2023/12/08 06:20:09;;;;;;;5.28;3.35;;;5.30;40.20;;;;;;5051362;28;20288;-46
2023/12/08 06:22:35;;;;;;;2.80;2.47;;;5.30;39.90;;;;;;5051816;28;20177;-52
2023/12/08 06:25:01;;;;;;;3.08;2.40;;;5.30;39.80;;;;;;5051750;28;20188;-49
2023/12/08 06:27:27;;;;;;;1.83;0.77;;;5.30;40.00;;;;;;5051632;28;20177;-47
2023/12/08 06:29:52;;;;;;;4.83;2.20;;;5.20;39.70;;;;;;5051552;28;20180;-53
2023/12/08 06:32:18;;;;;;;5.33;1.50;;;5.30;40.20;;;;;;5051507;28;20445;-47
2023/12/08 06:34:46;;;;;;;6.80;2.10;;;5.30;39.70;;;;;;5050349;28;20185;-45
2023/12/08 06:37:12;;;;;;;1.40;0.77;;;5.30;40.00;;;;;;5051359;28;20419;-47
2023/12/08 06:39:39;;;;;;;1.23;0.65;;;5.30;39.90;;;;;;5051368;28;20622;-53
2023/12/08 06:42:06;;;;;;;1.13;1.00;;;5.30;40.00;;;;;;5051559;28;20174;-47
2023/12/08 06:44:31;;;;;;;4.90;2.20;;;5.30;40.10;;;;;;5051619;28;20181;-45
2023/12/08 06:46:58;;;;;;;3.07;1.57;;;5.30;40.10;;;;;;5051158;28;20653;-50
2023/12/08 06:49:24;;;;;;;3.47;1.95;;;5.30;40.00;;;;;;5051736;28;20199;-51
2023/12/08 06:51:50;;;;;;;5.90;2.28;;;5.30;40.00;;;;;;5051243;28;20309;-45
2023/12/08 06:54:16;;;;;;;5.50;3.97;;;5.30;40.00;;;;;;5051360;28;20170;-46
2023/12/08 06:56:42;;;;;;;8.10;3.33;;;5.20;40.10;;;;;;5051207;28;20173;-52
2023/12/08 06:59:08;;;;;;;1.27;1.05;;;5.30;40.40;;;;;;5051329;28;20200;-47
2023/12/08 07:01:35;;;;;;;2.35;0.95;;;5.30;40.40;;;;;;5051195;28;20217;-44
2023/12/08 07:04:03;;;;;;;2.13;1.92;;;5.30;40.30;;;;;;5055108;28;20200;-47
2023/12/08 07:06:33;;;;;;;2.83;2.42;;;5.30;40.40;;;;;;5054740;28;20204;-50
2023/12/08 07:09:00;;;;;;;3.92;1.35;;;5.30;40.30;;;;;;5055047;28;20169;-47
2023/12/08 07:11:25;;;;;;;1.80;1.48;;;5.30;40.50;;;;;;5054739;28;20201;-46
2023/12/08 07:13:51;;;;;;;1.00;0.70;;;5.30;40.40;;;;;;5054726;28;20180;-52
2023/12/08 07:16:17;;;;;;;0.87;0.47;;;5.30;40.40;;;;;;5054646;28;20415;-49
2023/12/08 07:18:43;;;;;;;1.03;0.93;;;5.20;40.40;;;;;;5054932;28;20418;-45
2023/12/08 07:21:08;;;;;;;2.60;1.37;;;5.20;40.20;;;;;;5054311;28;20980;-46
2023/12/08 07:23:34;;;;;;;3.73;2.17;;;5.20;40.30;;;;;;5054663;28;20181;-51
2023/12/08 07:26:04;;;;;;;18.10;4.70;;;5.10;40.20;;;;;;5054473;28;20200;-47
2023/12/08 07:28:30;;;;;;;2.40;2.15;;;5.10;40.20;;;;;;5054518;28;20176;-49
2023/12/08 07:30:56;;;;;;;1.40;1.30;;;5.20;40.40;;;;;;5054463;28;20335;-46
2023/12/08 07:33:21;;;;;;;2.67;2.00;;;5.10;40.20;;;;;;5054615;28;20404;-45
2023/12/08 07:35:47;;;;;;;1.23;1.13;;;5.10;40.20;;;;;;5054287;28;20278;-53
2023/12/08 07:38:13;;;;;;;0.80;0.50;;;5.10;40.00;;;;;;5054330;28;20170;-46
2023/12/08 07:40:39;;;;;;;3.10;1.77;;;5.20;40.20;;;;;;5054253;28;20458;-51
2023/12/08 07:43:04;;;;;;;8.23;2.73;;;5.10;40.00;;;;;;5054114;28;20248;-45
2023/12/08 07:45:30;;;;;;;3.43;2.70;;;5.10;40.10;;;;;;5054229;28;20654;-47
2023/12/08 07:47:56;;;;;;;6.43;1.83;;;5.20;40.00;;;;;;5054154;28;20176;-54
2023/12/08 07:50:22;;;;;;;2.65;1.75;;;5.20;40.00;;;;;;5054201;28;20243;-45
2023/12/08 07:52:48;;;;;;;3.57;2.60;;;5.30;40.00;;;;;;5054161;28;20185;-51
2023/12/08 07:55:14;;;;;;;1.83;0.70;;;5.40;39.80;;;;;;5054102;28;20399;-51
2023/12/08 07:57:40;;;;;;;2.60;1.10;;;5.40;39.70;;;;;;5053882;28;20239;-49
2023/12/08 08:00:06;;;;;;;3.23;2.03;;;5.50;39.80;;;;;;5053879;28;20706;-51
2023/12/08 08:02:32;;;;;;;2.25;1.58;;;5.50;39.70;;;;;;5054062;28;20173;-45
2023/12/08 08:04:58;;;;;;;3.03;2.80;;;5.50;39.80;;;;;;5053914;28;20181;-48
2023/12/08 08:07:24;;;;;;;4.85;1.50;;;5.30;39.80;;;;;;5053737;28;20201;-47
2023/12/08 08:09:51;;;;;;;5.47;1.95;;;5.40;39.90;;;;;;5053647;28;20181;-47
2023/12/08 08:12:17;;;;;;;1.10;0.70;;;5.30;40.00;;;;;;5053540;28;20260;-53
2023/12/08 08:14:43;;;;;;;1.42;1.05;;;5.30;40.30;;;;;;5052822;28;20169;-52
2023/12/08 08:17:08;;;;;;;4.83;3.40;;;5.40;40.20;;;;;;5053511;28;20169;-47
2023/12/08 08:19:34;;;;;;;5.33;1.97;;;5.30;40.20;;;;;;5053676;28;20185;-48
2023/12/08 08:22:00;;;;;;;2.10;2.00;;;5.40;40.40;;;;;;5053334;28;20297;-50
2023/12/08 08:24:26;;;;;;;3.63;1.77;;;5.50;40.10;;;;;;5053645;28;20177;-46
2023/12/08 08:26:52;;;;;;;2.25;1.00;;;5.50;40.40;;;;;;5053303;28;20318;-47
2023/12/08 08:29:18;;;;;;;2.70;2.00;;;5.50;40.40;;;;;;5070197;22;20325;-56
2023/12/08 08:31:44;;;;;;;3.93;2.10;;;5.60;40.40;;;;;;5053209;28;20179;-50
2023/12/08 08:34:09;;;;;;;3.70;2.50;;;5.60;40.50;;;;;;5053077;28;20914;-53
2023/12/08 08:36:35;;;;;;;6.17;3.53;;;5.60;40.20;;;;;;5053009;28;20419;-54
2023/12/08 08:39:03;;;;;;;3.13;2.30;;;5.60;40.00;;;;;;5053039;28;20224;-49
2023/12/08 08:41:29;;;;;;;4.40;2.70;;;5.50;40.40;;;;;;5052791;28;20216;-52
2023/12/08 08:43:55;;;;;;;1.57;1.27;;;5.50;40.20;;;;;;5053020;28;20185;-55
2023/12/08 08:46:20;;;;;;;3.17;1.30;;;5.50;40.30;;;;;;5052653;28;20412;-49
2023/12/08 08:48:46;;;;;;;3.80;1.80;;;5.50;40.80;;;;;;5052724;28;20196;-53
2023/12/08 08:51:14;;;;;;;2.80;2.30;;;5.40;40.70;;;;;;5052736;28;20457;-57
2023/12/08 08:53:40;;;;;;;4.65;2.97;;;4.60;40.20;;;;;;5052687;28;20209;-51
2023/12/08 08:56:06;;;;;;;2.23;2.03;;;5.40;40.80;;;;;;5051718;28;20212;-56
2023/12/08 08:58:32;;;;;;;1.10;0.97;;;5.40;40.40;;;;;;5052600;28;20193;-52
2023/12/08 09:00:58;;;;;;;5.03;2.83;;;5.40;40.50;;;;;;5052522;28;20447;-56
2023/12/08 09:03:24;;;;;;;1.43;1.17;;;5.30;41.10;;;;;;5052502;28;20801;-59
2023/12/08 09:05:49;;;;;;;2.17;2.00;;;5.30;41.20;;;;;;5052255;28;20477;-48
2023/12/08 09:08:15;;;;;;;2.40;1.37;;;5.40;41.20;;;;;;5052494;28;20193;-49
2023/12/08 09:10:45;;;;;;;5.97;3.10;;;5.30;41.00;;;;;;5052383;28;20638;-57
2023/12/08 09:13:11;;;;;;;2.03;1.60;;;5.30;41.50;;;;;;5052345;28;20412;-56
2023/12/08 09:15:37;;;;;;;3.97;3.30;;;5.30;41.70;;;;;;5052253;28;20181;-50
2023/12/08 09:18:03;;;;;;;7.83;3.23;;;5.30;41.40;;;;;;5052148;28;20696;-51
2023/12/08 09:20:29;;;;;;;1.33;1.00;;;5.20;41.60;;;;;;5052139;28;20209;-55
2023/12/08 09:22:54;;;;;;;3.37;2.73;;;5.30;41.60;;;;;;5052222;28;20177;-57
2023/12/08 09:25:21;;;;;;;1.20;0.77;;;5.30;41.90;;;;;;5052177;28;20501;-49
2023/12/08 09:27:47;;;;;;;0.90;0.68;;;5.40;41.70;;;;;;5051783;28;20407;-52
2023/12/08 09:30:13;;;;;;;5.43;1.60;;;5.50;41.80;;;;;;5052142;28;20209;-56
2023/12/08 09:32:39;;;;;;;1.90;1.40;;;5.60;41.20;;;;;;5051948;28;20193;-50
2023/12/08 09:35:05;;;;;;;2.60;2.03;;;5.70;40.80;;;;;;5052132;28;20186;-53
2023/12/08 09:37:31;;;;;;;12.23;2.10;;;5.70;40.60;;;;;;5051888;28;20532;-50
2023/12/08 09:39:56;;;;;;;1.20;1.07;;;5.70;40.70;;;;;;5051898;28;20498;-51
2023/12/08 09:42:34;;;;;;;8.77;3.17;;;5.70;40.40;;;;;;5050816;28;20173;-55
2023/12/08 09:45:04;;;;;;;1.55;0.82;;;5.70;40.80;;;;;;5051820;28;20626;-53
2023/12/08 09:47:35;;;;;;;5.20;2.97;;;5.70;40.80;;;;;;5051858;28;20198;-59
2023/12/08 09:50:09;;;;;;;1.30;0.95;;;5.80;41.00;;;;;;5051895;28;20181;-50
2023/12/08 09:52:35;;;;;;;2.55;1.15;;;5.90;40.60;;;;;;5051827;28;20189;-53
2023/12/08 09:55:03;;;;;;;2.85;1.88;;;5.80;40.20;;;;;;5051744;28;20689;-55
2023/12/08 09:57:30;;;;;;;3.65;2.90;;;5.90;40.40;;;;;;5051486;28;20268;-50
2023/12/08 09:59:59;;;;;;;1.88;1.48;;;5.80;40.40;;;;;;5051519;28;20789;-53
2023/12/08 10:02:26;;;;;;;3.90;3.60;;;5.80;40.80;;;;;;5051515;28;20608;-56
2023/12/08 10:04:52;;;;;;;4.47;1.95;;;5.80;40.50;;;;;;5051736;28;20172;-51
2023/12/08 10:07:19;;;;;;;1.20;0.95;;;5.90;40.60;;;;;;5051586;28;20242;-57
2023/12/08 10:09:45;;;;;;;4.75;2.72;;;5.90;40.60;;;;;;5051461;28;20197;-54
2023/12/08 10:12:11;;;;;;;3.23;1.23;;;6.00;40.50;;;;;;5051645;28;20179;-52
2023/12/08 10:15:00;;;;;;;0.80;0.30;;;6.00;40.20;;;;;;5051608;28;20177;-57
2023/12/08 10:17:26;;;;;;;1.10;1.00;;;5.90;40.20;;;;;;5051290;28;20253;-49
2023/12/08 10:20:10;;;;;;;5.30;2.30;;;5.90;40.30;;;;;;5051451;28;20365;-57
2023/12/08 10:23:02;;;;;;;3.65;3.35;;;6.00;40.40;;;;;;5051756;28;20252;-51
2023/12/08 10:25:28;;;;;;;2.00;1.30;;;6.00;39.70;;;;;;5049442;28;20591;-56
2023/12/08 10:27:55;;;;;;;1.83;1.60;;;6.00;40.20;;;;;;5051227;28;20271;-50
2023/12/08 10:30:27;;;;;;;6.30;2.65;;;6.10;40.20;;;;;;5051426;28;20182;-50
2023/12/08 10:32:54;;;;;;;1.13;1.02;;;6.10;39.60;;;;;;5051351;28;20764;-51
2023/12/08 10:35:21;;;;;;;1.35;1.25;;;6.00;39.50;;;;;;5051672;28;20185;-53
2023/12/08 10:37:48;;;;;;;0.85;0.43;;;6.00;40.00;;;;;;5045178;28;20650;-58
2023/12/08 10:40:19;;;;;;;2.00;0.88;;;6.00;40.30;;;;;;5055319;28;20208;-49
2023/12/08 10:42:47;;;;;;;2.35;2.05;;;6.10;40.10;;;;;;5055201;28;20615;-57
2023/12/08 10:45:13;;;;;;;1.98;1.38;;;6.00;39.80;;;;;;5055265;28;20261;-50
2023/12/08 10:47:43;;;;;;;2.97;2.58;;;6.10;39.70;;;;;;5054826;28;20264;-56
2023/12/08 10:50:12;;;;;;;2.20;2.00;;;6.00;39.70;;;;;;5055296;28;20247;-56
2023/12/08 10:52:39;;;;;;;0.90;0.43;;;6.00;39.90;;;;;;5055171;28;20205;-50
2023/12/08 10:55:06;;;;;;;4.25;2.67;;;6.00;39.70;;;;;;5055054;28;20268;-55
2023/12/08 10:57:33;;;;;;;3.40;1.85;;;6.10;39.70;;;;;;5054684;28;20181;-51
2023/12/08 11:00:19;;;;;;;1.40;1.30;;;6.10;39.50;;;;;;5054801;28;20267;-50
2023/12/08 11:02:49;;;;;;;2.60;1.90;;;6.10;39.90;;;;;;5054984;28;20169;-55
2023/12/08 11:05:45;;;;;;;7.40;2.40;;;6.10;39.70;;;;;;5054948;28;20185;-52
2023/12/08 11:08:12;;;;;;;4.75;3.20;;;6.10;39.80;;;;;;5054720;28;20221;-50
2023/12/08 11:10:40;;;;;;;3.85;2.42;;;6.10;39.50;;;;;;5054645;28;20647;-51
2023/12/08 11:13:20;;;;;;;4.22;2.72;;;6.10;39.90;;;;;;5054600;28;20185;-50
2023/12/08 11:15:58;;;;;;;1.90;1.65;;;6.20;39.80;;;;;;5054425;28;20231;-57
2023/12/08 11:18:28;;;;;;;2.90;2.05;;;6.30;39.60;;;;;;5054466;28;20296;-52
2023/12/08 11:20:54;;;;;;;2.00;1.27;;;6.30;39.00;;;;;;5054441;28;20240;-57
2023/12/08 11:23:21;;;;;;;1.52;0.90;;;6.30;39.80;;;;;;5054670;28;20184;-51
2023/12/08 11:26:11;;;;;;;8.00;2.88;;;6.30;39.60;;;;;;5046098;28;20165;-50
2023/12/08 11:29:02;;;;;;;3.88;0.93;;;6.40;39.90;;;;;;5054098;28;20220;-52
2023/12/08 11:31:44;;;;;;;1.10;0.63;;;6.60;39.40;;;;;;5054472;28;20182;-50
2023/12/08 11:34:17;;;;;;;2.42;2.20;;;6.70;39.30;;;;;;5054437;28;20178;-53
2023/12/08 11:36:47;;;;;;;2.05;1.85;;;6.80;38.80;;;;;;5054139;28;20227;-54
2023/12/08 11:39:34;;;;;;;2.35;2.15;;;6.80;38.50;;;;;;5054239;28;20205;-50
2023/12/08 11:42:03;;;;;;;3.85;3.33;;;6.90;38.70;;;;;;5054023;28;20201;-56
2023/12/08 11:44:33;;;;;;;3.78;2.50;;;7.00;38.40;;;;;;5054211;28;20268;-49
2023/12/08 11:47:02;;;;;;;3.25;2.38;;;7.10;38.30;;;;;;5053851;28;20173;-52
2023/12/08 11:49:29;;;;;;;1.52;1.17;;;7.30;38.10;;;;;;5052598;28;20239;-57
2023/12/08 11:52:10;;;;;;;2.58;1.23;;;7.30;37.40;;;;;;5053992;28;20535;-49
2023/12/08 11:54:59;;;;;;;2.58;1.52;;;7.40;37.80;;;;;;5053922;28;20726;-57
2023/12/08 11:57:25;;;;;;;2.50;2.30;;;7.40;37.70;;;;;;5053628;28;20644;-52
2023/12/08 11:59:51;;;;;;;1.90;1.70;;;7.40;37.80;;;;;;5053717;28;20201;-56
2023/12/08 12:02:17;;;;;;;3.87;3.47;;;7.50;37.80;;;;;;5053686;28;20170;-47
2023/12/08 12:04:43;;;;;;;1.95;1.85;;;7.50;37.40;;;;;;5053835;28;20185;-49
2023/12/08 12:07:09;;;;;;;4.55;3.78;;;7.40;37.20;;;;;;5053583;28;20173;-54
2023/12/08 12:09:35;;;;;;;1.60;1.03;;;7.40;37.20;;;;;;5053487;28;20208;-52
2023/12/08 12:12:14;;;;;;;5.03;3.08;;;7.40;37.20;;;;;;5053695;28;20605;-46
2023/12/08 12:14:43;;;;;;;1.48;1.35;;;7.40;37.40;;;;;;5053469;28;20665;-56
2023/12/08 12:17:13;;;;;;;1.30;0.75;;;7.30;37.10;;;;;;5053235;28;20200;-48
2023/12/08 12:19:39;;;;;;;5.65;2.70;;;7.30;37.50;;;;;;5053518;28;20558;-55
2023/12/08 12:22:05;;;;;;;4.13;2.10;;;7.30;37.10;;;;;;5053264;28;20205;-55
2023/12/08 12:24:31;;;;;;;1.23;0.85;;;7.30;37.00;;;;;;5053441;28;20184;-48
2023/12/08 12:26:57;;;;;;;4.68;2.20;;;7.30;37.50;;;;;;5053110;28;20173;-48
2023/12/08 12:29:24;;;;;;;8.73;1.57;;;7.40;37.30;;;;;;5052966;28;20261;-56
2023/12/08 12:31:50;;;;;;;1.77;1.33;;;7.40;37.60;;;;;;5053430;28;20173;-49
2023/12/08 12:34:16;;;;;;;1.20;0.87;;;7.40;37.10;;;;;;5053426;28;20205;-47
2023/12/08 12:36:42;;;;;;;2.83;1.00;;;7.40;37.30;;;;;;5052987;28;20177;-51
2023/12/08 12:39:09;;;;;;;2.80;1.57;;;7.50;37.60;;;;;;5053107;28;20205;-51
2023/12/08 12:41:35;;;;;;;1.15;1.05;;;7.60;37.70;;;;;;5052913;28;20216;-49
2023/12/08 12:44:01;;;;;;;5.13;2.10;;;7.60;37.20;;;;;;5052824;28;20267;-55
2023/12/08 12:46:27;;;;;;;9.65;1.65;;;7.50;37.10;;;;;;5052651;28;20539;-55
2023/12/08 12:48:57;;;;;;;1.85;1.52;;;7.50;37.00;;;;;;5052793;28;20200;-46
2023/12/08 12:51:35;;;;;;;1.00;0.85;;;7.60;37.00;;;;;;5053029;28;20189;-50
2023/12/08 12:54:03;;;;;;;4.20;2.45;;;7.60;36.90;;;;;;5052731;28;20180;-53
2023/12/08 12:56:33;;;;;;;1.88;1.45;;;7.60;36.90;;;;;;5052554;28;20701;-47
2023/12/08 12:59:03;;;;;;;1.70;1.50;;;7.60;37.10;;;;;;5052570;28;20201;-50